LPPT/LIS METAR and TAF weather

Enter ICAO airport designator
Station Type Date Time Source
LPPT METAR 2019/12/13 03:30 UTC NOAA

LPPT 130330Z 30014KT 9999 FEW024 BKN034 14/12 Q1024


Station Type Date Time Source
LPPT Decoded METAR 2019/12/13 03:30 UTC NOAA

Lisboa / Portela, Portugal (LPPT) 38-46N 009-08W 123M
Dec 12, 2019 - 10:30 PM EST / 2019.12.13 0330 UTC
Wind: from the WNW (300 degrees) at 16 MPH (14 KT):0
Visibility: greater than 7 mile(s):0
Sky conditions: mostly cloudy
Temperature: 57 F (14 C)
Dew Point: 53 F (12 C)
Relative Humidity: 87%
Pressure (altimeter): 30.24 in. Hg (1024 hPa)
ob: LPPT 130330Z 30014KT 9999 FEW024 BKN034 14/12 Q1024
cycle: 3

Station Type Date Time Source
LPPT TAF 2019/12/12 18:18 UTC NOAA

TAF LPPT 121700Z 1218/1324 28013KT 9999 SCT010 BKN018
TEMPO 1218/1301 3000 RADZ BR SCT003 BKN006
BECMG 1301/1303 FEW015 SCT030 PROB30
TEMPO 1303/1312 8000 -SHRA SCT012 BKN018
BECMG 1318/1320 28007KT

Example: see airport list